createdAt,value
2022-09-30T00:00:49.390Z,835.12
2022-09-30T00:01:49.455Z,834.24
2022-09-30T00:02:52.500Z,833.9
2022-09-30T00:03:49.408Z,833.21
2022-09-30T00:04:49.422Z,832.92
2022-09-30T00:05:49.430Z,832.95
2022-09-30T00:06:49.400Z,831.95
2022-09-30T00:07:49.406Z,831.14
2022-09-30T00:08:49.404Z,830.73
2022-09-30T00:09:49.424Z,829.64
2022-09-30T00:10:49.405Z,829.05
2022-09-30T00:11:49.411Z,829.27
2022-09-30T00:12:49.413Z,827.52
2022-09-30T00:13:49.412Z,828.8
2022-09-30T00:14:49.431Z,828.41
2022-09-30T00:15:49.466Z,827.95
2022-09-30T00:16:49.415Z,828.17
2022-09-30T00:17:49.419Z,827.81
2022-09-30T00:18:49.418Z,827.11
2022-09-30T00:19:49.440Z,826.85
2022-09-30T00:20:49.424Z,826.39
2022-09-30T00:21:49.429Z,825.46
2022-09-30T00:22:49.423Z,824.94
2022-09-30T00:23:49.440Z,824.48
2022-09-30T00:24:49.450Z,824.54
2022-09-30T00:25:49.431Z,824.21
2022-09-30T00:26:49.430Z,823.93
2022-09-30T00:27:49.429Z,823.5
2022-09-30T00:28:49.432Z,822.86
2022-09-30T00:29:49.454Z,822.7
2022-09-30T00:30:49.436Z,822.48
2022-09-30T00:31:49.556Z,820.88
2022-09-30T00:32:49.441Z,821.67
2022-09-30T00:33:49.439Z,820.98
2022-09-30T00:34:53.393Z,820.72
2022-09-30T00:35:49.448Z,819.65
2022-09-30T00:40:49.452Z,816.44
2022-09-30T00:41:49.450Z,816.6
2022-09-30T00:42:49.457Z,815.92
2022-09-30T00:43:49.455Z,815.22
2022-09-30T00:44:49.458Z,815.13
2022-09-30T00:45:50.673Z,813.71
2022-09-30T00:46:49.504Z,813.44
2022-09-30T00:47:49.486Z,812.43
2022-09-30T00:48:49.460Z,812.36
2022-09-30T00:49:49.464Z,811.76
2022-09-30T00:50:49.467Z,809.6
2022-09-30T00:51:49.464Z,809.94
2022-09-30T00:52:49.473Z,809.02
2022-09-30T00:53:49.470Z,808.26
2022-09-30T00:54:49.470Z,807.82
2022-09-30T00:55:49.473Z,807.37
2022-09-30T00:56:52.368Z,806.66
2022-09-30T00:57:49.476Z,805.88
2022-09-30T00:58:49.477Z,806.23
2022-09-30T00:59:49.480Z,805.35
2022-09-30T01:00:49.519Z,805.06
2022-09-30T01:01:49.499Z,804.37
2022-09-30T01:02:49.499Z,803.89
2022-09-30T01:03:49.586Z,803.33
2022-09-30T01:04:49.482Z,802.73
2022-09-30T01:05:49.484Z,801.17
2022-09-30T01:06:49.484Z,801.07
2022-09-30T01:07:52.578Z,800.4
2022-09-30T01:08:49.490Z,799.47
2022-09-30T01:09:49.546Z,797.05
2022-09-30T01:10:49.494Z,797.13
2022-09-30T01:11:49.494Z,797.02
2022-09-30T01:12:49.500Z,795.73
2022-09-30T01:13:49.497Z,794.88
2022-09-30T01:14:49.497Z,794.59
2022-09-30T01:15:49.554Z,793.43
2022-09-30T01:16:49.503Z,792.71
2022-09-30T01:17:49.505Z,793.19
2022-09-30T01:18:52.607Z,792.69
2022-09-30T01:19:49.504Z,793
2022-09-30T01:20:49.507Z,792.99
2022-09-30T01:21:49.510Z,792.73
2022-09-30T01:22:49.511Z,792.72
2022-09-30T01:23:49.512Z,792.55
2022-09-30T01:24:49.511Z,792.72
2022-09-30T01:25:49.514Z,793.08
2022-09-30T01:26:49.517Z,794.02
2022-09-30T01:27:49.519Z,793.66
2022-09-30T01:28:49.516Z,793.88
2022-09-30T01:29:49.516Z,794.61
2022-09-30T01:30:49.518Z,794.92
2022-09-30T01:31:49.587Z,794.96
2022-09-30T01:32:49.523Z,795.08
2022-09-30T01:33:49.523Z,795.05
2022-09-30T01:34:49.548Z,795.52
2022-09-30T01:35:49.525Z,795.65
2022-09-30T01:36:49.538Z,795.16
2022-09-30T01:37:49.532Z,795.42
2022-09-30T01:38:49.532Z,796.16
2022-09-30T01:39:49.534Z,795.7
2022-09-30T01:40:49.530Z,796.06
2022-09-30T01:41:49.538Z,796.02
2022-09-30T01:42:49.534Z,795.8
2022-09-30T01:43:49.537Z,795.88
2022-09-30T01:44:49.537Z,795.81
2022-09-30T01:45:49.541Z,795.87
2022-09-30T01:46:49.589Z,795.72
2022-09-30T01:47:49.540Z,795.68
2022-09-30T01:48:49.546Z,795.78
2022-09-30T01:49:49.544Z,795.83
2022-09-30T01:50:49.575Z,795.78
2022-09-30T01:51:49.546Z,795.67
2022-09-30T01:52:49.547Z,796.05
2022-09-30T01:53:49.552Z,795.89
2022-09-30T01:54:49.553Z,796.4
2022-09-30T01:55:49.556Z,796.36
2022-09-30T01:56:49.556Z,795.53
2022-09-30T01:57:49.557Z,796.28
2022-09-30T01:58:49.557Z,795.55
2022-09-30T01:59:49.561Z,795.68
2022-09-30T02:00:49.647Z,795.25
2022-09-30T02:01:49.583Z,794.34
2022-09-30T02:02:49.563Z,794.51
2022-09-30T02:03:49.565Z,793.6
2022-09-30T02:04:49.564Z,793.5
2022-09-30T02:05:49.586Z,793.05
2022-09-30T02:06:49.590Z,791.74
2022-09-30T02:07:49.579Z,792.82
2022-09-30T02:08:49.575Z,791.58
2022-09-30T02:09:49.612Z,791.28
2022-09-30T02:10:49.574Z,791.02
2022-09-30T02:11:49.574Z,790.91
2022-09-30T02:12:49.581Z,790.33
2022-09-30T02:13:49.576Z,789.98
2022-09-30T02:14:49.578Z,789.53
2022-09-30T02:15:49.613Z,789.67
2022-09-30T02:16:49.582Z,789.51
2022-09-30T02:17:49.583Z,789.57
2022-09-30T02:18:49.599Z,790.07
2022-09-30T02:19:49.591Z,790.83
2022-09-30T02:20:49.586Z,790.51
2022-09-30T02:21:49.586Z,790.85
2022-09-30T02:22:49.614Z,791.25
2022-09-30T02:23:49.592Z,791.5
2022-09-30T02:24:49.595Z,791.49
2022-09-30T02:25:49.591Z,791.52
2022-09-30T02:26:49.598Z,792.13
2022-09-30T02:27:49.604Z,791.83
2022-09-30T02:28:49.598Z,792.16
2022-09-30T02:29:52.670Z,792.43
2022-09-30T02:30:49.603Z,792.14
2022-09-30T02:31:49.650Z,792.35
2022-09-30T02:32:49.604Z,792.32
2022-09-30T02:33:49.604Z,792.8
2022-09-30T02:34:49.606Z,792.92
2022-09-30T02:35:49.606Z,792.96
2022-09-30T02:36:49.606Z,792.97
2022-09-30T02:37:49.614Z,793.28
2022-09-30T02:38:49.639Z,793.2
2022-09-30T02:39:49.614Z,793.02
2022-09-30T02:40:49.612Z,792.73
2022-09-30T02:41:49.615Z,792.02
2022-09-30T02:42:49.616Z,792.61
2022-09-30T02:43:49.617Z,793.09
2022-09-30T02:44:49.623Z,791.67
2022-09-30T02:45:52.610Z,792.67
2022-09-30T02:46:49.859Z,792.19
2022-09-30T02:47:49.625Z,792.05
2022-09-30T02:48:49.628Z,791.19
2022-09-30T02:49:49.640Z,790.12
2022-09-30T02:50:49.626Z,788.95
2022-09-30T02:51:49.630Z,787.92
2022-09-30T02:52:49.629Z,787.19
2022-09-30T02:53:49.632Z,787.43
2022-09-30T02:54:49.663Z,787.91
2022-09-30T02:55:49.642Z,787.77
2022-09-30T02:56:49.635Z,788.11
2022-09-30T02:57:49.637Z,787.95
2022-09-30T02:58:49.643Z,788.38
2022-09-30T02:59:49.638Z,788.05
2022-09-30T03:00:49.646Z,787.28
2022-09-30T03:01:52.506Z,786.15
2022-09-30T03:02:49.645Z,785.95
2022-09-30T03:03:49.645Z,784.52
2022-09-30T03:04:49.647Z,785.17
2022-09-30T03:05:49.647Z,784.76
2022-09-30T03:06:49.649Z,783.96
2022-09-30T03:07:49.647Z,783.66
2022-09-30T03:08:49.652Z,782.53
2022-09-30T03:09:49.688Z,781.31
2022-09-30T03:10:49.678Z,780.61
2022-09-30T03:11:49.654Z,780.22
2022-09-30T03:12:52.672Z,780.09
2022-09-30T03:13:49.670Z,779.5
2022-09-30T03:14:49.656Z,779.48
2022-09-30T03:15:49.681Z,779.18
2022-09-30T03:16:49.662Z,779.36
2022-09-30T03:17:49.664Z,779.37
2022-09-30T03:18:49.662Z,778.91
2022-09-30T03:19:49.668Z,779.51
2022-09-30T03:20:49.668Z,779.96
2022-09-30T03:21:49.667Z,779.96
2022-09-30T03:22:49.670Z,779.35
2022-09-30T03:23:52.684Z,779.45
2022-09-30T03:24:49.675Z,779.74
2022-09-30T03:25:49.673Z,779.61
2022-09-30T03:26:49.696Z,779.96
2022-09-30T03:27:49.675Z,778.91
2022-09-30T03:28:49.678Z,779.25
2022-09-30T03:29:49.681Z,778.07
2022-09-30T03:30:49.678Z,777.83
2022-09-30T03:31:49.746Z,776.69
2022-09-30T03:32:49.683Z,775.29
2022-09-30T03:33:49.682Z,774.81
2022-09-30T03:34:52.516Z,774.63
2022-09-30T03:35:49.685Z,774.36
2022-09-30T03:36:49.843Z,773.16
2022-09-30T03:37:49.687Z,772.45
2022-09-30T03:38:49.697Z,771.51
2022-09-30T03:39:49.693Z,771.53
2022-09-30T03:40:49.750Z,770.33
2022-09-30T03:41:49.708Z,769.95
2022-09-30T03:42:49.745Z,769.07
2022-09-30T03:43:49.704Z,768.36
2022-09-30T03:44:49.696Z,767.63
2022-09-30T03:45:52.480Z,767.48
2022-09-30T03:46:49.778Z,767.31
2022-09-30T03:47:49.705Z,767.79
2022-09-30T03:48:49.702Z,767.02
2022-09-30T03:49:49.703Z,766.87
2022-09-30T03:50:49.709Z,766.09
2022-09-30T03:51:51.010Z,765.95
2022-09-30T03:52:49.708Z,765.63
2022-09-30T03:53:49.711Z,765.07
2022-09-30T03:54:49.711Z,764.34
2022-09-30T03:55:49.718Z,764.09
2022-09-30T03:56:49.723Z,763.89
2022-09-30T03:57:49.715Z,764.05
2022-09-30T03:58:49.738Z,763.39
2022-09-30T03:59:49.716Z,763.58
2022-09-30T04:00:49.751Z,763.87
2022-09-30T04:01:49.773Z,763.41
2022-09-30T04:02:49.718Z,763.3
2022-09-30T04:03:49.721Z,762.72
2022-09-30T04:04:49.727Z,762.51
2022-09-30T04:05:49.727Z,762.5
2022-09-30T04:06:49.726Z,762.12
2022-09-30T04:07:49.725Z,761.08
2022-09-30T04:08:49.727Z,760.23
2022-09-30T04:09:49.815Z,759.96
2022-09-30T04:10:49.733Z,760.05
2022-09-30T04:11:49.788Z,759.68
2022-09-30T04:12:49.741Z,760.19
2022-09-30T04:13:49.731Z,759.21
2022-09-30T04:14:49.757Z,759.26
2022-09-30T04:15:49.842Z,758.68
2022-09-30T04:16:53.752Z,758.63
2022-09-30T04:17:49.748Z,757.19
2022-09-30T04:18:49.747Z,756.72
2022-09-30T04:19:49.764Z,756.18
2022-09-30T04:20:49.742Z,757.11
2022-09-30T04:21:49.752Z,757.08
2022-09-30T04:22:49.747Z,757.69
2022-09-30T04:23:49.751Z,758.2
2022-09-30T04:24:49.751Z,758.94
2022-09-30T04:25:49.751Z,759.1
2022-09-30T04:26:49.757Z,759.33
2022-09-30T04:27:49.790Z,760.14
2022-09-30T04:28:49.755Z,759.8
2022-09-30T04:29:49.776Z,759.87
2022-09-30T04:30:49.784Z,759.4
2022-09-30T04:31:49.819Z,758.79
2022-09-30T04:32:49.762Z,758.94
2022-09-30T04:33:49.759Z,758.8
2022-09-30T04:34:49.763Z,757.05
2022-09-30T04:35:49.767Z,758.63
2022-09-30T04:36:49.768Z,758.49
2022-09-30T04:37:49.762Z,758.19
2022-09-30T04:38:49.767Z,759.34
2022-09-30T04:39:49.805Z,759.96
2022-09-30T04:40:49.769Z,760.05
2022-09-30T04:41:49.799Z,760.15
2022-09-30T04:42:49.776Z,760.74
2022-09-30T04:43:49.795Z,760.75
2022-09-30T04:44:49.772Z,761.09
2022-09-30T04:45:49.794Z,761.06
2022-09-30T04:46:49.803Z,761.21
2022-09-30T04:47:49.789Z,761.39
2022-09-30T04:48:49.781Z,761.02
2022-09-30T04:49:49.776Z,761.39
2022-09-30T04:50:49.781Z,762.14
2022-09-30T04:51:49.794Z,762.74
2022-09-30T04:52:49.783Z,762.75
2022-09-30T04:53:49.800Z,762.75
2022-09-30T04:54:49.785Z,762.49
2022-09-30T04:55:49.786Z,762.9
2022-09-30T04:56:52.879Z,762.32
2022-09-30T04:57:58.667Z,763.55
2022-09-30T04:58:49.793Z,764.02
2022-09-30T04:59:49.968Z,764.2
2022-09-30T05:00:49.847Z,763.73
2022-09-30T05:01:49.862Z,764.12
2022-09-30T05:02:49.827Z,763.12
2022-09-30T05:03:49.799Z,761.89
2022-09-30T05:04:49.801Z,760.82
2022-09-30T05:05:49.797Z,759.88
2022-09-30T05:06:49.797Z,759.05
2022-09-30T05:07:49.812Z,758.27
2022-09-30T05:08:49.804Z,757.53
2022-09-30T05:09:49.804Z,757.22
2022-09-30T05:10:49.809Z,757.36
2022-09-30T05:11:49.807Z,757.18
2022-09-30T05:12:49.809Z,757.33
2022-09-30T05:13:49.811Z,756.76
2022-09-30T05:14:49.813Z,756.11
2022-09-30T05:15:49.874Z,754.87
2022-09-30T05:16:49.813Z,754.89
2022-09-30T05:17:49.816Z,755.04
2022-09-30T05:18:49.838Z,754.31
2022-09-30T05:19:49.825Z,753.97
2022-09-30T05:20:49.818Z,753.9
2022-09-30T05:21:49.823Z,754.62
2022-09-30T05:22:49.824Z,754.41
2022-09-30T05:23:49.822Z,755.26
2022-09-30T05:24:49.821Z,756.02
2022-09-30T05:25:49.825Z,755.69
2022-09-30T05:26:49.824Z,756.69
2022-09-30T05:27:49.826Z,756.53
2022-09-30T05:28:52.856Z,756.24
2022-09-30T05:29:49.830Z,755.56
2022-09-30T05:30:49.833Z,755
2022-09-30T05:31:49.868Z,754.75
2022-09-30T05:32:49.835Z,754.8
2022-09-30T05:33:51.695Z,753.98
2022-09-30T05:34:49.861Z,753.71
2022-09-30T05:35:49.839Z,753.81
2022-09-30T05:36:49.837Z,753.9
2022-09-30T05:37:49.852Z,754.06
2022-09-30T05:38:49.853Z,753.75
2022-09-30T05:39:52.941Z,753.89
2022-09-30T05:40:49.847Z,754.05
2022-09-30T05:41:49.990Z,754.03
2022-09-30T05:42:49.853Z,754.43
2022-09-30T05:43:49.847Z,754.63
2022-09-30T05:44:49.844Z,754.29
2022-09-30T05:45:49.851Z,754.06
2022-09-30T05:46:49.911Z,754.4
2022-09-30T05:47:49.851Z,754.02
2022-09-30T05:48:49.851Z,753.5
2022-09-30T05:49:53.057Z,754
2022-09-30T05:50:53.108Z,753.98
2022-09-30T05:51:49.857Z,754.47
2022-09-30T05:52:49.866Z,753.72
2022-09-30T05:53:49.873Z,752.36
2022-09-30T05:54:49.911Z,751.92
2022-09-30T05:55:49.860Z,752.09
2022-09-30T05:56:49.863Z,751.94
2022-09-30T05:57:49.865Z,751.48
2022-09-30T05:58:49.862Z,752.79
2022-09-30T05:59:49.865Z,753.59
2022-09-30T06:00:49.867Z,754.51
2022-09-30T06:01:52.764Z,754.32
2022-09-30T06:02:50.014Z,755.56
2022-09-30T06:03:49.872Z,756.09
2022-09-30T06:04:49.877Z,757.52
2022-09-30T06:05:49.872Z,757.93
2022-09-30T06:06:49.895Z,758.75
2022-09-30T06:07:49.915Z,758.74
2022-09-30T06:08:49.875Z,759.04
2022-09-30T06:09:49.888Z,759.67
2022-09-30T06:10:49.878Z,760.52
2022-09-30T06:11:49.883Z,761.16
2022-09-30T06:12:53.801Z,760.52
2022-09-30T06:13:49.895Z,761.67
2022-09-30T06:14:49.902Z,762.49
2022-09-30T06:15:49.886Z,762.63
2022-09-30T06:16:49.970Z,763.58
2022-09-30T06:17:49.889Z,764.25
2022-09-30T06:18:49.893Z,765.26
2022-09-30T06:19:49.892Z,766.74
2022-09-30T06:20:49.894Z,767.49
2022-09-30T06:21:49.901Z,768.21
2022-09-30T06:22:50.000Z,769.27
2022-09-30T06:23:49.897Z,769.56
2022-09-30T06:24:54.237Z,771.08
2022-09-30T06:25:49.902Z,771.25
2022-09-30T06:26:49.902Z,772.29
2022-09-30T06:27:49.899Z,772.89
2022-09-30T06:28:49.900Z,773.77
2022-09-30T06:29:49.911Z,773.66
2022-09-30T06:30:49.914Z,774.34
2022-09-30T06:31:49.942Z,774.2
2022-09-30T06:32:49.909Z,775.5
2022-09-30T06:33:49.911Z,776.64
2022-09-30T06:34:49.909Z,777.19
2022-09-30T06:35:49.912Z,779.15
2022-09-30T06:36:49.914Z,780.31
2022-09-30T06:37:49.913Z,780.98
2022-09-30T06:38:49.936Z,781.78
2022-09-30T06:39:49.919Z,782.1
2022-09-30T06:40:49.955Z,782.65
2022-09-30T06:41:49.918Z,783.17
2022-09-30T06:42:49.922Z,783.37
2022-09-30T06:43:55.961Z,783.53
2022-09-30T06:44:53.352Z,783.61
2022-09-30T06:45:49.966Z,784.42
2022-09-30T06:46:53.784Z,784.66
2022-09-30T06:47:58.359Z,786.05
2022-09-30T06:48:49.928Z,787.01
2022-09-30T06:49:50.353Z,787.67
2022-09-30T06:50:58.665Z,786.91
2022-09-30T06:51:49.932Z,788.77
2022-09-30T06:52:50.831Z,788.89
2022-09-30T06:53:53.275Z,789.06
2022-09-30T06:54:49.962Z,789.97
2022-09-30T06:55:49.965Z,790.38
2022-09-30T06:56:49.941Z,791.01
2022-09-30T06:57:49.944Z,791.23
2022-09-30T06:58:49.969Z,792.03
2022-09-30T06:59:49.944Z,792.64
2022-09-30T07:00:49.982Z,793.1
2022-09-30T07:01:49.987Z,793.85
2022-09-30T07:02:49.949Z,794.62
2022-09-30T07:03:54.001Z,795.76
2022-09-30T07:04:49.953Z,796.12
2022-09-30T07:05:49.950Z,797.23
2022-09-30T07:06:49.953Z,797.87
2022-09-30T07:07:49.969Z,797.89
2022-09-30T07:08:49.973Z,798.87
2022-09-30T07:09:50.063Z,798.23
2022-09-30T07:10:49.983Z,799.92
2022-09-30T07:11:49.961Z,801.1
2022-09-30T07:12:49.961Z,801.91
2022-09-30T07:13:49.978Z,803.24
2022-09-30T07:14:49.962Z,803.92
2022-09-30T07:15:49.965Z,804.43
2022-09-30T07:16:50.022Z,805.62
2022-09-30T07:17:49.969Z,806.58
2022-09-30T07:18:49.985Z,808.13
2022-09-30T07:19:49.973Z,809.12
2022-09-30T07:20:49.969Z,810.62
2022-09-30T07:21:49.974Z,812.63
2022-09-30T07:22:49.974Z,813.81
2022-09-30T07:23:50.790Z,815.53
2022-09-30T07:24:49.982Z,817.26
2022-09-30T07:25:49.980Z,818.38
2022-09-30T07:26:50.023Z,820.11
2022-09-30T07:27:49.981Z,821.74
2022-09-30T07:28:49.984Z,820.91
2022-09-30T07:30:08.019Z,822.94
2022-09-30T07:30:49.984Z,823.57
2022-09-30T07:31:50.037Z,823.4
2022-09-30T07:32:49.987Z,824.38
2022-09-30T07:33:49.991Z,824.5
2022-09-30T07:34:49.991Z,825.21
2022-09-30T07:35:50.002Z,825.47
2022-09-30T07:36:49.998Z,825.95
2022-09-30T07:37:49.996Z,825.93
2022-09-30T07:38:50.000Z,825.38
2022-09-30T07:39:49.996Z,825.15
2022-09-30T07:40:50.000Z,825.61
2022-09-30T07:41:50.001Z,826.83
2022-09-30T07:42:50.028Z,827.79
2022-09-30T07:43:50.004Z,828.87
2022-09-30T07:44:50.004Z,829.57
2022-09-30T07:45:50.048Z,829.76
2022-09-30T07:46:50.007Z,830
2022-09-30T07:47:53.601Z,828.28
2022-09-30T07:48:50.015Z,827.8
2022-09-30T07:49:50.014Z,827.37
2022-09-30T07:51:50.016Z,827.74
2022-09-30T07:52:50.220Z,828.61
2022-09-30T07:53:50.029Z,828.36
2022-09-30T07:54:50.786Z,828.92
2022-09-30T07:55:52.847Z,828.53
2022-09-30T07:57:50.031Z,829.51
2022-09-30T07:58:50.145Z,830.42
2022-09-30T07:59:50.147Z,829.43
2022-09-30T08:00:50.091Z,829.66
2022-09-30T08:01:50.079Z,829.95
2022-09-30T08:02:50.169Z,829.94
2022-09-30T08:03:50.140Z,829.64
2022-09-30T08:04:50.065Z,830.46
2022-09-30T08:05:52.259Z,831.08
2022-09-30T08:06:52.823Z,832.55
2022-09-30T08:07:50.084Z,833.93
2022-09-30T08:08:50.148Z,835.6
2022-09-30T08:09:50.217Z,837.64
2022-09-30T08:10:50.085Z,839.13
2022-09-30T08:11:50.044Z,841.1
2022-09-30T08:12:51.692Z,842.56
2022-09-30T08:13:50.047Z,843.92
2022-09-30T08:14:50.174Z,844.98
2022-09-30T08:15:50.047Z,847.25
2022-09-30T08:16:50.093Z,849.58
2022-09-30T08:17:52.843Z,851.56
2022-09-30T08:18:50.054Z,853.99
2022-09-30T08:19:50.054Z,855.97
2022-09-30T08:20:50.056Z,857.66
2022-09-30T08:21:50.122Z,859.34
2022-09-30T08:22:50.058Z,860.28
2022-09-30T08:23:50.063Z,861.62
2022-09-30T08:24:50.069Z,863.1
2022-09-30T08:25:50.064Z,863.85
2022-09-30T08:26:50.104Z,865.95
2022-09-30T08:27:50.066Z,866.31
2022-09-30T08:28:52.924Z,867.18
2022-09-30T08:29:54.754Z,867.78
2022-09-30T08:30:50.100Z,869.56
2022-09-30T08:31:50.205Z,870.76
2022-09-30T08:32:50.079Z,872.11
2022-09-30T08:33:50.076Z,873.79
2022-09-30T08:34:50.079Z,875.18
2022-09-30T08:35:50.084Z,876.62
2022-09-30T08:36:50.088Z,878.28
2022-09-30T08:37:50.085Z,879.79
2022-09-30T08:38:50.090Z,880.45
2022-09-30T08:39:52.942Z,881.87
2022-09-30T08:40:50.087Z,883.51
2022-09-30T08:41:50.106Z,884.69
2022-09-30T08:42:52.846Z,886.19
2022-09-30T08:43:50.094Z,887.72
2022-09-30T08:44:50.101Z,887.42
2022-09-30T08:45:50.184Z,889.73
2022-09-30T08:46:51.871Z,891.06
2022-09-30T08:47:50.124Z,892.3
2022-09-30T08:48:50.100Z,892.91
2022-09-30T08:49:50.100Z,894.67
2022-09-30T08:50:50.126Z,895.53
2022-09-30T08:51:50.121Z,897.21
2022-09-30T08:52:50.272Z,898.64
2022-09-30T08:53:50.137Z,899.52
2022-09-30T08:54:50.211Z,901
2022-09-30T08:55:50.119Z,902.62
2022-09-30T08:56:50.120Z,904.12
2022-09-30T08:57:50.118Z,905.93
2022-09-30T08:58:50.121Z,907.13
2022-09-30T08:59:50.121Z,907.84
2022-09-30T09:00:50.172Z,907.73
2022-09-30T09:01:50.185Z,908.35
2022-09-30T09:02:50.273Z,908.94
2022-09-30T09:03:50.197Z,909.08
2022-09-30T09:04:50.170Z,910.63
2022-09-30T09:05:51.799Z,911.71
2022-09-30T09:06:50.130Z,913.09
2022-09-30T09:07:50.133Z,915.46
2022-09-30T09:08:50.192Z,918.99
2022-09-30T09:09:50.147Z,922.34
2022-09-30T09:10:50.139Z,923.25
2022-09-30T09:11:50.138Z,924.68
2022-09-30T09:12:50.134Z,925.89
2022-09-30T09:13:50.169Z,928.56
2022-09-30T09:14:50.142Z,930.97
2022-09-30T09:15:50.148Z,932.23
2022-09-30T09:16:50.271Z,933.91
2022-09-30T09:18:04.488Z,936.87
2022-09-30T09:18:50.181Z,941.09
2022-09-30T09:19:50.231Z,944.51
2022-09-30T09:20:50.178Z,948.9
2022-09-30T09:21:50.336Z,953.81
2022-09-30T09:22:50.238Z,956.37
2022-09-30T09:23:50.154Z,959.77
2022-09-30T09:24:50.159Z,963.83
2022-09-30T09:25:50.154Z,966.73
2022-09-30T09:26:50.214Z,969.64
2022-09-30T09:27:50.287Z,972.09
2022-09-30T09:28:51.667Z,972.01
2022-09-30T09:29:50.161Z,972.28
2022-09-30T09:30:50.166Z,971.51
2022-09-30T09:31:50.296Z,972.1
2022-09-30T09:32:50.170Z,974.83
2022-09-30T09:33:50.168Z,978.26
2022-09-30T09:34:50.415Z,981.09
2022-09-30T09:35:50.184Z,984.01
2022-09-30T09:36:50.175Z,986.76
2022-09-30T09:37:50.406Z,988.92
2022-09-30T09:38:50.187Z,990.6
2022-09-30T09:39:50.179Z,992.77
2022-09-30T09:40:50.198Z,994.82
2022-09-30T09:41:50.188Z,995.66
2022-09-30T09:42:50.189Z,998.15
2022-09-30T09:43:50.186Z,999.91
2022-09-30T09:44:50.195Z,1001.03
2022-09-30T09:45:50.227Z,1002.16
2022-09-30T09:46:50.188Z,1003.11
2022-09-30T09:47:50.195Z,1003.97
2022-09-30T09:48:50.195Z,1004.19
2022-09-30T09:49:52.706Z,1004.97
2022-09-30T09:50:50.218Z,1005.86
2022-09-30T09:51:52.953Z,1006.55
2022-09-30T09:52:50.198Z,1007.13
2022-09-30T09:53:50.199Z,1008.21
2022-09-30T09:54:50.239Z,1009.05
2022-09-30T09:55:50.306Z,1010.53
2022-09-30T09:56:50.209Z,1011.84
2022-09-30T09:57:53.030Z,1013.3
2022-09-30T09:59:50.459Z,1016.08
2022-09-30T10:00:50.230Z,1016.99
2022-09-30T10:01:53.120Z,1018.23
2022-09-30T10:02:50.218Z,1017.76
2022-09-30T10:03:50.217Z,1017.41
2022-09-30T10:04:50.219Z,1017.47
2022-09-30T10:05:50.292Z,1018.47
2022-09-30T10:06:50.251Z,1020.36
2022-09-30T10:07:50.228Z,1021.51
2022-09-30T10:08:50.335Z,1022.53
2022-09-30T10:09:50.226Z,1025.18
2022-09-30T10:10:50.406Z,1026.58
2022-09-30T10:11:50.233Z,1029.03
2022-09-30T10:12:50.231Z,1030.73
2022-09-30T10:13:50.231Z,1032.73
2022-09-30T10:14:50.232Z,1034.31
2022-09-30T10:15:50.305Z,1035.75
2022-09-30T10:16:53.274Z,1038.86
2022-09-30T10:17:50.240Z,1042.98
2022-09-30T10:18:50.245Z,1047.67
2022-09-30T10:19:50.248Z,1051.98
2022-09-30T10:20:50.253Z,1056.77
2022-09-30T10:21:51.775Z,1060.97
2022-09-30T10:22:50.281Z,1064.96
2022-09-30T10:23:50.248Z,1069.41
2022-09-30T10:24:50.254Z,1073.9
2022-09-30T10:25:50.251Z,1077.94
2022-09-30T10:26:50.255Z,1082
2022-09-30T10:27:50.336Z,1085.43
2022-09-30T10:28:50.260Z,1088.32
2022-09-30T10:29:50.262Z,1090.45
2022-09-30T10:30:50.267Z,1092.62
2022-09-30T10:31:50.286Z,1094.82
2022-09-30T10:32:50.270Z,1097.19
2022-09-30T10:33:53.099Z,1099.04
2022-09-30T10:34:50.268Z,1100.31
2022-09-30T10:35:50.269Z,1101.75
2022-09-30T10:36:50.285Z,1103.53
2022-09-30T10:37:51.549Z,1105.27
2022-09-30T10:38:50.302Z,1106.13
2022-09-30T10:39:50.281Z,1106.86
2022-09-30T10:40:50.285Z,1107.41
2022-09-30T10:41:50.281Z,1107.85
2022-09-30T10:42:50.281Z,1108.59
2022-09-30T10:43:50.283Z,1109.05
2022-09-30T10:44:51.904Z,1108.79
2022-09-30T10:46:07.212Z,1108.83
2022-09-30T10:46:50.380Z,1108.71
2022-09-30T10:47:50.289Z,1108.02
2022-09-30T10:48:50.291Z,1107.49
2022-09-30T10:49:50.292Z,1107.08
2022-09-30T10:50:50.298Z,1106.91
2022-09-30T10:51:50.297Z,1107.07
2022-09-30T10:52:50.299Z,1107.21
2022-09-30T10:53:50.302Z,1107.01
2022-09-30T10:54:50.413Z,1106.94
2022-09-30T10:55:53.325Z,1107.15
2022-09-30T10:56:51.279Z,1107.22
2022-09-30T10:57:50.308Z,1107.08
2022-09-30T10:58:50.359Z,1108.12
2022-09-30T10:59:50.314Z,1109.48
2022-09-30T11:00:50.339Z,1110.35
2022-09-30T11:01:51.497Z,1111.11
2022-09-30T11:02:51.822Z,1112.48
2022-09-30T11:03:50.408Z,1114.02
2022-09-30T11:04:50.319Z,1114.77
2022-09-30T11:05:50.322Z,1115.18
2022-09-30T11:06:53.134Z,1115.24
2022-09-30T11:07:50.326Z,1115.26
2022-09-30T11:08:50.325Z,1115.38
2022-09-30T11:09:50.329Z,1115.86
2022-09-30T11:10:50.371Z,1116.57
2022-09-30T11:11:50.335Z,1117.09
2022-09-30T11:12:50.332Z,1117.49
2022-09-30T11:13:50.336Z,1118.03
2022-09-30T11:14:50.340Z,1118.58
2022-09-30T11:15:50.355Z,1119.16
2022-09-30T11:16:50.395Z,1119.4
2022-09-30T11:17:53.211Z,1119.64
2022-09-30T11:18:50.352Z,1120.2
2022-09-30T11:19:50.348Z,1120.94
2022-09-30T11:20:50.380Z,1121.84
2022-09-30T11:21:53.194Z,1122.58
2022-09-30T11:22:50.352Z,1122.57
2022-09-30T11:23:50.497Z,1122.21
2022-09-30T11:24:50.468Z,1121.96
2022-09-30T11:25:50.473Z,1121.77
2022-09-30T11:26:50.424Z,1121.42
2022-09-30T11:27:50.489Z,1121.03
2022-09-30T11:28:50.359Z,1120.78
2022-09-30T11:29:50.366Z,1120.8
2022-09-30T11:30:50.365Z,1121.03
2022-09-30T11:31:50.435Z,1121.06
2022-09-30T11:32:50.377Z,1120.55
2022-09-30T11:33:50.371Z,1120.19
2022-09-30T11:34:50.397Z,1119.59
2022-09-30T11:35:50.374Z,1119.02
2022-09-30T11:36:50.399Z,1118.73
2022-09-30T11:37:50.376Z,1118.5
2022-09-30T11:38:50.382Z,1118.48
2022-09-30T11:39:50.387Z,1118.48
2022-09-30T11:40:50.384Z,1118.52
2022-09-30T11:41:50.383Z,1118.67
2022-09-30T11:42:50.421Z,1119.29
2022-09-30T11:43:50.393Z,1120.15
2022-09-30T11:44:50.389Z,1120.79
2022-09-30T11:45:50.515Z,1121.16
2022-09-30T11:46:52.838Z,1121.36
2022-09-30T11:47:50.468Z,1121.65
2022-09-30T11:48:50.465Z,1121.69
2022-09-30T11:49:50.399Z,1121.72
2022-09-30T11:50:50.494Z,1121.92
2022-09-30T11:51:50.405Z,1122.03
2022-09-30T11:52:50.549Z,1122.2
2022-09-30T11:53:50.408Z,1122.29
2022-09-30T11:54:50.447Z,1122.28
2022-09-30T11:55:50.410Z,1122.74
2022-09-30T11:56:50.417Z,1123.2
2022-09-30T11:57:50.412Z,1123.17
2022-09-30T11:58:50.437Z,1123.16
2022-09-30T11:59:50.418Z,1123.14
2022-09-30T12:00:50.446Z,1123
2022-09-30T12:01:50.453Z,1122.9
2022-09-30T12:02:50.487Z,1122.87
2022-09-30T12:03:50.425Z,1122.95
2022-09-30T12:04:50.422Z,1123.1
2022-09-30T12:05:50.427Z,1123.3
2022-09-30T12:06:50.437Z,1123.44
2022-09-30T12:07:50.444Z,1123.48
2022-09-30T12:08:50.435Z,1123.57
2022-09-30T12:09:50.436Z,1123.37
2022-09-30T12:10:50.437Z,1123.27
2022-09-30T12:11:53.164Z,1123.29
2022-09-30T12:12:50.596Z,1122.93
2022-09-30T12:13:50.442Z,1122.62
2022-09-30T12:14:50.464Z,1122.48
2022-09-30T12:15:50.445Z,1122.25
2022-09-30T12:16:50.482Z,1121.95
2022-09-30T12:17:50.471Z,1121.78
2022-09-30T12:18:50.446Z,1121.63
2022-09-30T12:19:50.650Z,1121.75
2022-09-30T12:20:50.471Z,1121.91
2022-09-30T12:21:50.454Z,1122.02
2022-09-30T12:22:50.458Z,1122.32
2022-09-30T12:23:50.456Z,1122.46
2022-09-30T12:24:50.461Z,1122.63
2022-09-30T12:25:50.513Z,1122.77
2022-09-30T12:26:50.517Z,1122.9
2022-09-30T12:27:50.487Z,1122.73
2022-09-30T12:28:50.532Z,1122.47
2022-09-30T12:29:50.472Z,1122.1
2022-09-30T12:30:50.513Z,1122.03
2022-09-30T12:31:50.499Z,1121.87
2022-09-30T12:32:50.475Z,1121.58